Irini — SYZA — position and weather

sailwx.info

Track history (hours):
 
Tides and Currents Weather Stations Pressure Air Temp Water Temp Dewpoint Dewpoint Depression Visibility Wind Speed Wind Dir Waves Ship Positions

Irini

Last reported at 2014-Aug-27 14:26 UTC. Time now 2014-Aug-30 04:27 UTC.
Position N 37°51' E 024°29'.

Length 137 m; draft 7 m.

Type: Tanker. MMSI: 240052000.

Date/timePositionNaut miles runAvg speedWind from/ knotsBaromVisibWave heightAir tempDewpointWater temp
2014-Aug-27 14:26N 37°51' E 024°29'1011.4
2014-Aug-27 13:33N 37°45' E 024°19'1211.6
2014-Aug-27 12:32N 37°37' E 024°08'1111.3
2014-Aug-27 11:33N 37°37' E 023°54'1111.1
2014-Aug-27 10:33N 37°42' E 023°42'1111.5
2014-Aug-27 09:34N 37°53' E 023°37'8 8.3
2014-Aug-27 08:33N 38°00' E 023°33'2 1.9
2014-Aug-27 07:33N 38°02' E 023°31'0 0.0
2014-Aug-27 06:31N 38°02' E 023°31'0 0.0
2014-Aug-27 05:19N 38°02' E 023°31'0 0.0
2014-Aug-27 04:28N 38°02' E 023°31'0 0.5
2014-Aug-27 03:34N 38°02' E 023°31'0 0.0
2014-Aug-27 02:31N 38°02' E 023°31'0 0.0
2014-Aug-27 01:31N 38°02' E 023°31'0 0.0
2014-Aug-27 00:28N 38°02' E 023°31'0 0.0
2014-Aug-26 23:28N 38°02' E 023°31'0 0.0
2014-Aug-26 22:31N 38°02' E 023°31'0 0.0
2014-Aug-26 21:31N 38°02' E 023°31'0 0.0
2014-Aug-26 20:28N 38°02' E 023°31'0 0.0
2014-Aug-26 19:22N 38°02' E 023°31'0 0.0
2014-Aug-26 18:31N 38°02' E 023°31'0 0.0
2014-Aug-26 17:28N 38°02' E 023°31'0 0.0
2014-Aug-26 16:28N 38°02' E 023°31'0 0.0
2014-Aug-26 15:28N 38°02' E 023°31'0 0.0
2014-Aug-26 14:25N 38°02' E 023°31'0 0.0
2014-Aug-26 13:31N 38°02' E 023°31'0 0.0
2014-Aug-26 12:31N 38°02' E 023°31'0 0.0
2014-Aug-26 11:25N 38°02' E 023°31'0 0.0
2014-Aug-26 10:31N 38°02' E 023°31'0 0.0
2014-Aug-26 09:31N 38°02' E 023°31'0 0.0
2014-Aug-26 08:31N 38°02' E 023°31'0 0.0
2014-Aug-26 07:31N 38°02' E 023°31'0 0.0
2014-Aug-26 06:31N 38°02' E 023°31'1 0.8
2014-Aug-26 05:33N 38°01' E 023°31'7 7.1
2014-Aug-26 04:33N 37°55' E 023°36'2 2.3
2014-Aug-26 03:33N 37°53' E 023°36'4 3.6
2014-Aug-26 02:33N 37°51' E 023°40'8 8.0
2014-Aug-26 01:33N 37°43' E 023°44'10 9.7
2014-Aug-26 00:29N 37°37' E 023°55'2410.6
2014-Aug-25 22:13N 37°47' E 024°22'  
2014-Aug-22 19:19N 37°59' E 024°36'911.4
2014-Aug-22 18:31N 37°52' E 024°30'1211.9
2014-Aug-22 17:29N 37°44' E 024°18'1111.7
2014-Aug-22 16:31N 37°37' E 024°07'1111.4
2014-Aug-22 15:33N 37°38' E 023°53'1010.4
2014-Aug-22 14:33N 37°43' E 023°41'1110.9
2014-Aug-22 13:33N 37°53' E 023°37'8 8.4
2014-Aug-22 12:33N 38°01' E 023°32'2 1.8
2014-Aug-22 11:30N 38°02' E 023°31'0 0.0
2014-Aug-22 10:30N 38°02' E 023°31'0 0.0
2014-Aug-22 09:30N 38°02' E 023°31'0 0.0
2014-Aug-22 08:33N 38°02' E 023°31'0 0.0
2014-Aug-22 07:33N 38°02' E 023°31'0 0.0
2014-Aug-22 06:33N 38°02' E 023°31'0 0.0
2014-Aug-22 05:27N 38°02' E 023°31'0 0.0
2014-Aug-22 04:24N 38°02' E 023°31'0 0.0
2014-Aug-22 03:30N 38°02' E 023°31'0 0.0
2014-Aug-22 02:33N 38°02' E 023°31'0 0.0
2014-Aug-22 01:30N 38°02' E 023°31'0 0.0
2014-Aug-22 00:24N 38°02' E 023°31'0 0.0
2014-Aug-21 23:30N 38°02' E 023°31'0 0.0
2014-Aug-21 22:30N 38°02' E 023°31'0 0.0
2014-Aug-21 21:27N 38°02' E 023°31'0 0.0
2014-Aug-21 20:24N 38°02' E 023°31'0 0.0
2014-Aug-21 19:30N 38°02' E 023°31'0 0.0
2014-Aug-21 18:30N 38°02' E 023°31'0 0.0
2014-Aug-21 17:30N 38°02' E 023°31'0 0.0
2014-Aug-21 16:33N 38°02' E 023°31'0 0.0
2014-Aug-21 15:30N 38°02' E 023°31'0 0.0
2014-Aug-21 14:27N 38°02' E 023°31'0 0.0
2014-Aug-21 13:33N 38°02' E 023°31'0 0.0
2014-Aug-21 12:33N 38°02' E 023°31'0 0.0
2014-Aug-21 11:27N 38°02' E 023°31'0 0.0
2014-Aug-21 10:33N 38°02' E 023°31'0 0.0
2014-Aug-21 09:30N 38°02' E 023°31'0 0.5
2014-Aug-21 08:33N 38°02' E 023°31'1 0.6
2014-Aug-21 07:32N 38°02' E 023°32'0 0.1
2014-Aug-21 06:29N 38°02' E 023°32'0 0.0
2014-Aug-21 05:29N 38°02' E 023°32'0 0.0
2014-Aug-21 04:32N 38°02' E 023°32'0 0.0
2014-Aug-21 03:32N 38°02' E 023°32'0 0.0
2014-Aug-21 02:32N 38°02' E 023°32'0 0.0
2014-Aug-21 01:32N 38°02' E 023°32'0 0.0
2014-Aug-21 00:29N 38°02' E 023°32'0 0.0
2014-Aug-20 23:32N 38°02' E 023°32'0 0.1
2014-Aug-20 22:23N 38°02' E 023°32'0 0.0
2014-Aug-20 21:29N 38°02' E 023°32'0 0.0
2014-Aug-20 20:32N 38°02' E 023°32'0 0.0
2014-Aug-20 19:32N 38°02' E 023°32'0 0.0
2014-Aug-20 18:32N 38°02' E 023°32'0 0.0
2014-Aug-20 17:29N 38°02' E 023°32'0 0.0
2014-Aug-20 16:32N 38°02' E 023°32'0 0.0
2014-Aug-20 15:32N 38°02' E 023°32'0 0.0
2014-Aug-20 12:14N 38°02' E 023°32'0 0.0
2014-Aug-20 08:05N 38°02' E 023°32'3 0.1
2014-Aug-19 07:14N 38°01' E 023°35'2 3.2
2014-Aug-19 06:33N 38°01' E 023°32'  
Track history (hours):
 
Tides and Currents Weather Stations Pressure Air Temp Water Temp Dewpoint Dewpoint Depression Visibility Wind Speed Wind Dir Waves Ship Positions

Irini

Last reported at 2014-Aug-27 14:26 UTC. Time now 2014-Aug-30 04:27 UTC.
Position N 37°51' E 024°29'.

Length 137 m; draft 7 m.

Type: Tanker. MMSI: 240052000.

Date/timePositionNaut miles runAvg speedWind from/ knotsBaromVisibWave heightAir tempDewpointWater temp
2014-Aug-27 14:26N 37°51' E 024°29'1011.4
2014-Aug-27 13:33N 37°45' E 024°19'1211.6
2014-Aug-27 12:32N 37°37' E 024°08'1111.3
2014-Aug-27 11:33N 37°37' E 023°54'1111.1
2014-Aug-27 10:33N 37°42' E 023°42'1111.5
2014-Aug-27 09:34N 37°53' E 023°37'8 8.3
2014-Aug-27 08:33N 38°00' E 023°33'2 1.9
2014-Aug-27 07:33N 38°02' E 023°31'0 0.0
2014-Aug-27 06:31N 38°02' E 023°31'0 0.0
2014-Aug-27 05:19N 38°02' E 023°31'0 0.0
2014-Aug-27 04:28N 38°02' E 023°31'0 0.5
2014-Aug-27 03:34N 38°02' E 023°31'0 0.0
2014-Aug-27 02:31N 38°02' E 023°31'0 0.0
2014-Aug-27 01:31N 38°02' E 023°31'0 0.0
2014-Aug-27 00:28N 38°02' E 023°31'0 0.0
2014-Aug-26 23:28N 38°02' E 023°31'0 0.0
2014-Aug-26 22:31N 38°02' E 023°31'0 0.0
2014-Aug-26 21:31N 38°02' E 023°31'0 0.0
2014-Aug-26 20:28N 38°02' E 023°31'0 0.0
2014-Aug-26 19:22N 38°02' E 023°31'0 0.0
2014-Aug-26 18:31N 38°02' E 023°31'0 0.0
2014-Aug-26 17:28N 38°02' E 023°31'0 0.0
2014-Aug-26 16:28N 38°02' E 023°31'0 0.0
2014-Aug-26 15:28N 38°02' E 023°31'0 0.0
2014-Aug-26 14:25N 38°02' E 023°31'0 0.0
2014-Aug-26 13:31N 38°02' E 023°31'0 0.0
2014-Aug-26 12:31N 38°02' E 023°31'0 0.0
2014-Aug-26 11:25N 38°02' E 023°31'0 0.0
2014-Aug-26 10:31N 38°02' E 023°31'0 0.0
2014-Aug-26 09:31N 38°02' E 023°31'0 0.0
2014-Aug-26 08:31N 38°02' E 023°31'0 0.0
2014-Aug-26 07:31N 38°02' E 023°31'0 0.0
2014-Aug-26 06:31N 38°02' E 023°31'1 0.8
2014-Aug-26 05:33N 38°01' E 023°31'7 7.1
2014-Aug-26 04:33N 37°55' E 023°36'2 2.3
2014-Aug-26 03:33N 37°53' E 023°36'4 3.6
2014-Aug-26 02:33N 37°51' E 023°40'8 8.0
2014-Aug-26 01:33N 37°43' E 023°44'10 9.7
2014-Aug-26 00:29N 37°37' E 023°55'2410.6
2014-Aug-25 22:13N 37°47' E 024°22'  
2014-Aug-22 19:19N 37°59' E 024°36'911.4
2014-Aug-22 18:31N 37°52' E 024°30'1211.9
2014-Aug-22 17:29N 37°44' E 024°18'1111.7
2014-Aug-22 16:31N 37°37' E 024°07'1111.4
2014-Aug-22 15:33N 37°38' E 023°53'1010.4
2014-Aug-22 14:33N 37°43' E 023°41'1110.9
2014-Aug-22 13:33N 37°53' E 023°37'8 8.4
2014-Aug-22 12:33N 38°01' E 023°32'2 1.8
2014-Aug-22 11:30N 38°02' E 023°31'0 0.0
2014-Aug-22 10:30N 38°02' E 023°31'0 0.0
2014-Aug-22 09:30N 38°02' E 023°31'0 0.0
2014-Aug-22 08:33N 38°02' E 023°31'0 0.0
2014-Aug-22 07:33N 38°02' E 023°31'0 0.0
2014-Aug-22 06:33N 38°02' E 023°31'0 0.0
2014-Aug-22 05:27N 38°02' E 023°31'0 0.0
2014-Aug-22 04:24N 38°02' E 023°31'0 0.0
2014-Aug-22 03:30N 38°02' E 023°31'0 0.0
2014-Aug-22 02:33N 38°02' E 023°31'0 0.0
2014-Aug-22 01:30N 38°02' E 023°31'0 0.0
2014-Aug-22 00:24N 38°02' E 023°31'0 0.0
2014-Aug-21 23:30N 38°02' E 023°31'0 0.0
2014-Aug-21 22:30N 38°02' E 023°31'0 0.0
2014-Aug-21 21:27N 38°02' E 023°31'0 0.0
2014-Aug-21 20:24N 38°02' E 023°31'0 0.0
2014-Aug-21 19:30N 38°02' E 023°31'0 0.0
2014-Aug-21 18:30N 38°02' E 023°31'0 0.0
2014-Aug-21 17:30N 38°02' E 023°31'0 0.0
2014-Aug-21 16:33N 38°02' E 023°31'0 0.0
2014-Aug-21 15:30N 38°02' E 023°31'0 0.0
2014-Aug-21 14:27N 38°02' E 023°31'0 0.0
2014-Aug-21 13:33N 38°02' E 023°31'0 0.0
2014-Aug-21 12:33N 38°02' E 023°31'0 0.0
2014-Aug-21 11:27N 38°02' E 023°31'0 0.0
2014-Aug-21 10:33N 38°02' E 023°31'0 0.0
2014-Aug-21 09:30N 38°02' E 023°31'0 0.5
2014-Aug-21 08:33N 38°02' E 023°31'1 0.6
2014-Aug-21 07:32N 38°02' E 023°32'0 0.1
2014-Aug-21 06:29N 38°02' E 023°32'0 0.0
2014-Aug-21 05:29N 38°02' E 023°32'0 0.0
2014-Aug-21 04:32N 38°02' E 023°32'0 0.0
2014-Aug-21 03:32N 38°02' E 023°32'0 0.0
2014-Aug-21 02:32N 38°02' E 023°32'0 0.0
2014-Aug-21 01:32N 38°02' E 023°32'0 0.0
2014-Aug-21 00:29N 38°02' E 023°32'0 0.0
2014-Aug-20 23:32N 38°02' E 023°32'0 0.1
2014-Aug-20 22:23N 38°02' E 023°32'0 0.0
2014-Aug-20 21:29N 38°02' E 023°32'0 0.0
2014-Aug-20 20:32N 38°02' E 023°32'0 0.0
2014-Aug-20 19:32N 38°02' E 023°32'0 0.0
2014-Aug-20 18:32N 38°02' E 023°32'0 0.0
2014-Aug-20 17:29N 38°02' E 023°32'0 0.0
2014-Aug-20 16:32N 38°02' E 023°32'0 0.0
2014-Aug-20 15:32N 38°02' E 023°32'0 0.0
2014-Aug-20 12:14N 38°02' E 023°32'0 0.0
2014-Aug-20 08:05N 38°02' E 023°32'3 0.1
2014-Aug-19 07:14N 38°01' E 023°35'2 3.2
2014-Aug-19 06:33N 38°01' E 023°32'  

Dump ship's entire track history